Terminal Aerodrome Forecast
Issued by NWS

Home | Current Version | Previous Version | Text Only | Print | Product List | Glossary On
Versions: 1 2 3 4 5 6 7 8 9 10 11 12 13 14 15 16 17 18
000
FTUS43 KGRB 271128
TAFATW
TAF
KATW 271128Z 2712/2812 33009KT 4SM RA BR SCT004 OVC010
      TEMPO 2712/2715 2SM RA BR BKN004
     FM271500 30013G21KT 6SM -RA BR OVC007
     FM271800 29012G22KT P6SM -RASN OVC009
     FM272000 26014G23KT P6SM OVC015
     FM280000 25010G17KT P6SM BKN024
     FM280600 25008KT P6SM SCT028
     FM281000 25006KT P6SM SCT040=

USA.gov is the U.S. government's official web portal to all federal, state and local government web resources and services.